DLH402 EDDF-KEWR
Flight info
| Callsign | DLH402 |
|---|---|
| Flight time | N/A |
| Altitude | 36000 |
| Route | OBOKA5G OBOKA Z29 TORNU DCT BATAK DCT GALSO Q63 ERING L179 UGBET Q60 OKSAW DCT BIBPE DCT FELCA DCT FADZU DCT OFSOX DCT SLANY DCT TOBOR/M082F370 NATC ELSIR/N0464F380 N402C ALLEX DCT HANAA FLOSI4 |
| Aircraft | A346/H-SDE2E3FGHIJ3J4J5M1RWXY/LB1D1 |
Departure
| Time | 2026-05-06 11:31 |
|---|---|
| Airport | Frankfurt Main Airport (EDDF) |
Arrival
| Time | N/A |
|---|---|
| Airport | Newark Liberty International Airport (KEWR) |
| Time | Latitude | Longitude | Altitude | Speed | Heading |
|---|---|---|---|---|---|
| 2026-05-06 10:09 | 50.04669 | 8.56048 | 364 ft | 0 kts | 340° |
| 2026-05-06 11:18 | 50.04653 | 8.56057 | 368 ft | 4 kts | 340° |
| 2026-05-06 11:18 | 50.04636 | 8.56066 | 368 ft | 4 kts | 340° |
| 2026-05-06 11:19 | 50.04597 | 8.56112 | 366 ft | 4 kts | 283° |
| 2026-05-06 11:19 | 50.04596 | 8.56132 | 370 ft | 4 kts | 261° |
| 2026-05-06 11:20 | 50.04580 | 8.56071 | 368 ft | 0 kts | 250° |
| 2026-05-06 11:22 | 50.04579 | 8.56070 | 368 ft | 0 kts | 250° |
| 2026-05-06 11:22 | 50.04578 | 8.56065 | 368 ft | 1 kts | 250° |
| 2026-05-06 11:22 | 50.04577 | 8.56058 | 368 ft | 2 kts | 250° |
| 2026-05-06 11:22 | 50.04568 | 8.56023 | 369 ft | 5 kts | 245° |
| 2026-05-06 11:23 | 50.04539 | 8.55970 | 370 ft | 8 kts | 213° |
| 2026-05-06 11:23 | 50.04484 | 8.55935 | 369 ft | 9 kts | 198° |
| 2026-05-06 11:23 | 50.04415 | 8.55911 | 370 ft | 11 kts | 185° |
| 2026-05-06 11:23 | 50.04331 | 8.55935 | 368 ft | 14 kts | 158° |
| 2026-05-06 11:24 | 50.04256 | 8.55954 | 365 ft | 11 kts | 206° |
| 2026-05-06 11:24 | 50.04181 | 8.55914 | 366 ft | 13 kts | 169° |
| 2026-05-06 11:24 | 50.04094 | 8.55984 | 368 ft | 15 kts | 129° |
| 2026-05-06 11:24 | 50.04095 | 8.56142 | 363 ft | 16 kts | 70° |
| 2026-05-06 11:25 | 50.04132 | 8.56301 | 362 ft | 16 kts | 70° |
| 2026-05-06 11:25 | 50.04170 | 8.56460 | 369 ft | 15 kts | 69° |
| 2026-05-06 11:25 | 50.04207 | 8.56616 | 366 ft | 15 kts | 69° |
| 2026-05-06 11:25 | 50.04243 | 8.56765 | 372 ft | 14 kts | 69° |
| 2026-05-06 11:26 | 50.04278 | 8.56910 | 369 ft | 15 kts | 69° |
| 2026-05-06 11:26 | 50.04315 | 8.57060 | 373 ft | 15 kts | 69° |
| 2026-05-06 11:26 | 50.04350 | 8.57209 | 371 ft | 15 kts | 69° |
| 2026-05-06 11:26 | 50.04387 | 8.57364 | 373 ft | 16 kts | 69° |
| 2026-05-06 11:27 | 50.04426 | 8.57527 | 371 ft | 16 kts | 70° |
| 2026-05-06 11:27 | 50.04463 | 8.57687 | 376 ft | 16 kts | 70° |
| 2026-05-06 11:27 | 50.04502 | 8.57852 | 376 ft | 17 kts | 69° |
| 2026-05-06 11:27 | 50.04544 | 8.58024 | 376 ft | 18 kts | 69° |
| 2026-05-06 11:28 | 50.04584 | 8.58193 | 377 ft | 14 kts | 69° |
| 2026-05-06 11:28 | 50.04617 | 8.58329 | 378 ft | 13 kts | 69° |
| 2026-05-06 11:28 | 50.04648 | 8.58461 | 380 ft | 7 kts | 69° |
| 2026-05-06 11:28 | 50.04656 | 8.58535 | 381 ft | 7 kts | 107° |
| 2026-05-06 11:29 | 50.04618 | 8.58583 | 380 ft | 8 kts | 160° |
| 2026-05-06 11:29 | 50.04565 | 8.58608 | 380 ft | 8 kts | 170° |
| 2026-05-06 11:29 | 50.04512 | 8.58610 | 379 ft | 7 kts | 193° |
| 2026-05-06 11:29 | 50.04477 | 8.58542 | 380 ft | 11 kts | 245° |
| 2026-05-06 11:30 | 50.04393 | 8.58195 | 378 ft | 63 kts | 249° |
| 2026-05-06 11:30 | 50.04178 | 8.57303 | 378 ft | 114 kts | 249° |
| 2026-05-06 11:30 | 50.03849 | 8.55914 | 363 ft | 158 kts | 249° |
| 2026-05-06 11:30 | 50.03417 | 8.54121 | 393 ft | 191 kts | 250° |
| 2026-05-06 11:31 | 50.02963 | 8.52174 | 967 ft | 189 kts | 246° |
| 2026-05-06 11:31 | 50.02588 | 8.50222 | 1529 ft | 191 kts | 265° |
| 2026-05-06 11:31 | 50.02740 | 8.48143 | 2008 ft | 193 kts | 276° |
| 2026-05-06 11:31 | 50.02940 | 8.46065 | 2376 ft | 196 kts | 274° |
| 2026-05-06 11:32 | 50.03069 | 8.43919 | 2725 ft | 201 kts | 268° |
| 2026-05-06 11:32 | 50.02958 | 8.41780 | 3184 ft | 202 kts | 257° |
| 2026-05-06 11:32 | 50.02589 | 8.39653 | 3627 ft | 206 kts | 252° |
| 2026-05-06 11:32 | 50.02223 | 8.37464 | 4063 ft | 212 kts | 255° |
| 2026-05-06 11:33 | 50.01903 | 8.35189 | 4507 ft | 220 kts | 257° |
| 2026-05-06 11:33 | 50.01617 | 8.32760 | 4810 ft | 236 kts | 259° |
| 2026-05-06 11:33 | 50.01351 | 8.30146 | 5153 ft | 252 kts | 260° |
| 2026-05-06 11:33 | 50.01333 | 8.27354 | 5588 ft | 266 kts | 280° |
| 2026-05-06 11:34 | 50.01988 | 8.24645 | 6339 ft | 268 kts | 293° |
| 2026-05-06 11:34 | 50.02823 | 8.22045 | 7067 ft | 269 kts | 294° |
| 2026-05-06 11:34 | 50.03644 | 8.19452 | 7684 ft | 273 kts | 292° |
| 2026-05-06 11:34 | 50.04461 | 8.16767 | 8348 ft | 276 kts | 292° |
| 2026-05-06 11:35 | 50.05281 | 8.14053 | 9036 ft | 279 kts | 294° |
| 2026-05-06 11:35 | 50.06265 | 8.11416 | 9706 ft | 284 kts | 301° |
| 2026-05-06 11:35 | 50.07452 | 8.08916 | 10222 ft | 292 kts | 305° |
| 2026-05-06 11:35 | 50.08755 | 8.06374 | 10506 ft | 308 kts | 306° |
| 2026-05-06 11:36 | 50.10134 | 8.03713 | 10768 ft | 324 kts | 306° |
| 2026-05-06 11:36 | 50.11562 | 8.00956 | 11064 ft | 339 kts | 306° |
| 2026-05-06 11:36 | 50.13075 | 7.98026 | 11341 ft | 354 kts | 306° |
| 2026-05-06 11:36 | 50.14649 | 7.94968 | 11616 ft | 369 kts | 306° |
| 2026-05-06 11:37 | 50.16283 | 7.91786 | 12025 ft | 379 kts | 306° |
| 2026-05-06 11:37 | 50.17940 | 7.88557 | 12638 ft | 382 kts | 306° |
| 2026-05-06 11:37 | 50.19606 | 7.85304 | 13275 ft | 385 kts | 306° |
| 2026-05-06 11:37 | 50.21286 | 7.82018 | 13855 ft | 389 kts | 306° |
| 2026-05-06 11:38 | 50.22980 | 7.78704 | 14444 ft | 391 kts | 306° |
| 2026-05-06 11:38 | 50.24825 | 7.75560 | 14998 ft | 396 kts | 315° |
| 2026-05-06 11:38 | 50.27000 | 7.72969 | 15555 ft | 402 kts | 325° |
| 2026-05-06 11:38 | 50.29503 | 7.70929 | 16095 ft | 408 kts | 333° |
| 2026-05-06 11:39 | 50.32120 | 7.69144 | 16670 ft | 412 kts | 334° |
| 2026-05-06 11:39 | 50.34776 | 7.67379 | 17194 ft | 416 kts | 334° |
| 2026-05-06 11:39 | 50.37450 | 7.65582 | 17758 ft | 420 kts | 334° |
| 2026-05-06 11:39 | 50.40146 | 7.63745 | 18268 ft | 424 kts | 334° |
| 2026-05-06 11:40 | 50.42856 | 7.61887 | 18745 ft | 427 kts | 333° |
| 2026-05-06 11:40 | 50.45592 | 7.60004 | 19220 ft | 430 kts | 333° |
| 2026-05-06 11:40 | 50.48337 | 7.58109 | 19706 ft | 432 kts | 333° |
| 2026-05-06 11:40 | 50.51099 | 7.56202 | 20164 ft | 435 kts | 333° |